createdAt,value
2023-03-30T00:00:40.754Z,64.66
2023-03-30T00:01:40.773Z,64.39
2023-03-30T00:02:40.858Z,64.19
2023-03-30T00:03:40.946Z,63.93
2023-03-30T00:04:40.959Z,64.00
2023-03-30T00:05:40.913Z,64.47
2023-03-30T00:06:40.998Z,64.03
2023-03-30T00:07:40.997Z,64.02
2023-03-30T00:08:41.007Z,63.97
2023-03-30T00:09:41.025Z,63.56
2023-03-30T00:10:41.100Z,63.62
2023-03-30T00:11:41.122Z,63.46
2023-03-30T00:12:41.120Z,63.72
2023-03-30T00:13:41.104Z,64.45
2023-03-30T00:14:41.125Z,64.80
2023-03-30T00:15:41.173Z,64.79
2023-03-30T00:16:41.175Z,64.55
2023-03-30T00:17:41.104Z,64.51
2023-03-30T00:18:41.129Z,65.24
2023-03-30T00:19:41.172Z,64.83
2023-03-30T00:20:41.281Z,64.85
2023-03-30T00:21:41.289Z,64.98
2023-03-30T00:22:41.356Z,65.02
2023-03-30T00:23:41.410Z,65.03
2023-03-30T00:24:41.483Z,64.50
2023-03-30T00:25:41.552Z,64.18
2023-03-30T00:26:41.634Z,63.93
2023-03-30T00:27:41.643Z,63.75
2023-03-30T00:28:41.716Z,63.88
2023-03-30T00:29:41.744Z,63.81
2023-03-30T00:30:41.811Z,63.40
2023-03-30T00:31:41.928Z,63.45
2023-03-30T00:32:42.006Z,62.93
2023-03-30T00:33:46.518Z,62.40
2023-03-30T00:34:43.021Z,62.10
2023-03-30T00:35:42.020Z,61.92
2023-03-30T00:36:42.027Z,61.80
2023-03-30T00:37:42.025Z,61.42
2023-03-30T00:38:41.990Z,61.18
2023-03-30T00:39:41.992Z,61.11
2023-03-30T00:40:42.003Z,61.36
2023-03-30T00:41:41.963Z,61.51
2023-03-30T00:42:41.961Z,61.54
2023-03-30T00:43:41.973Z,61.94
2023-03-30T00:44:41.964Z,63.23
2023-03-30T00:45:41.953Z,64.52
2023-03-30T00:46:41.942Z,66.17
2023-03-30T00:47:42.027Z,66.92
2023-03-30T00:48:42.001Z,68.20
2023-03-30T00:49:42.047Z,69.14
2023-03-30T00:50:42.090Z,69.10
2023-03-30T00:51:42.167Z,69.40
2023-03-30T00:52:42.166Z,68.68
2023-03-30T00:53:42.177Z,68.81
2023-03-30T00:54:42.139Z,67.64
2023-03-30T00:55:42.169Z,67.23
2023-03-30T00:56:42.252Z,68.21
2023-03-30T00:57:42.228Z,67.43
2023-03-30T00:58:42.265Z,66.90
2023-03-30T00:59:42.330Z,66.41
2023-03-30T01:00:42.335Z,67.18
2023-03-30T01:01:42.380Z,66.71
2023-03-30T01:02:42.437Z,66.24
2023-03-30T01:03:42.466Z,66.90
2023-03-30T01:04:42.411Z,66.41
2023-03-30T01:05:42.386Z,66.00
2023-03-30T01:06:42.406Z,66.01
2023-03-30T01:07:42.432Z,65.69
2023-03-30T01:08:42.518Z,64.93
2023-03-30T01:09:42.484Z,64.77
2023-03-30T01:10:42.478Z,64.72
2023-03-30T01:11:42.526Z,65.81
2023-03-30T01:12:42.613Z,66.04
2023-03-30T01:13:42.642Z,66.29
2023-03-30T01:14:42.690Z,66.19
2023-03-30T01:15:42.809Z,66.85
2023-03-30T01:16:42.762Z,67.79
2023-03-30T01:17:42.845Z,68.07
2023-03-30T01:18:42.822Z,68.17
2023-03-30T01:19:42.836Z,68.62
2023-03-30T01:20:42.828Z,68.84
2023-03-30T01:21:42.823Z,69.44
2023-03-30T01:22:42.863Z,69.70
2023-03-30T01:23:42.856Z,69.51
2023-03-30T01:24:42.880Z,69.48
2023-03-30T01:25:42.887Z,69.88
2023-03-30T01:26:42.884Z,69.80
2023-03-30T01:27:42.920Z,70.15
2023-03-30T01:28:42.948Z,70.63
2023-03-30T01:29:43.012Z,71.12
2023-03-30T01:30:43.004Z,70.78
2023-03-30T01:31:43.113Z,70.68
2023-03-30T01:32:43.106Z,70.43
2023-03-30T01:33:43.074Z,70.59
2023-03-30T01:34:43.097Z,71.20
2023-03-30T01:35:43.151Z,70.43
2023-03-30T01:36:43.130Z,70.46
2023-03-30T01:37:43.120Z,70.80
2023-03-30T01:38:43.115Z,70.55
2023-03-30T01:39:43.177Z,70.56
2023-03-30T01:40:43.204Z,70.22
2023-03-30T01:41:43.179Z,70.71
2023-03-30T01:42:43.214Z,71.18
2023-03-30T01:43:43.186Z,70.90
2023-03-30T01:44:43.550Z,70.32
2023-03-30T01:45:43.191Z,70.24
2023-03-30T01:46:43.243Z,70.73
2023-03-30T01:47:43.303Z,70.38
2023-03-30T01:48:43.232Z,70.11
2023-03-30T01:49:43.290Z,69.58
2023-03-30T01:50:43.345Z,69.30
2023-03-30T01:51:43.357Z,68.91
2023-03-30T01:52:43.415Z,68.23
2023-03-30T01:53:43.424Z,67.99
2023-03-30T01:54:43.428Z,67.65
2023-03-30T01:55:43.438Z,67.41
2023-03-30T01:56:43.570Z,67.05
2023-03-30T01:57:43.513Z,66.88
2023-03-30T01:58:43.611Z,66.75
2023-03-30T01:59:43.679Z,66.66
2023-03-30T02:00:43.676Z,66.37
2023-03-30T02:01:43.815Z,66.21
2023-03-30T02:02:43.867Z,66.15
2023-03-30T02:03:43.945Z,66.07
2023-03-30T02:04:43.852Z,66.00
2023-03-30T02:05:43.911Z,65.79
2023-03-30T02:06:43.920Z,65.53
2023-03-30T02:07:44.010Z,65.40
2023-03-30T02:08:44.084Z,65.22
2023-03-30T02:09:44.151Z,64.62
2023-03-30T02:10:44.189Z,64.34
2023-03-30T02:11:44.244Z,64.74
2023-03-30T02:12:44.249Z,65.14
2023-03-30T02:13:44.291Z,66.24
2023-03-30T02:14:44.321Z,66.10
2023-03-30T02:15:44.349Z,65.40
2023-03-30T02:16:44.422Z,64.75
2023-03-30T02:17:44.396Z,64.38
2023-03-30T02:18:44.452Z,64.58
2023-03-30T02:19:44.482Z,64.88
2023-03-30T02:20:44.518Z,65.82
2023-03-30T02:21:44.588Z,66.30
2023-03-30T02:22:44.604Z,66.25
2023-03-30T02:23:44.648Z,65.81
2023-03-30T02:24:44.669Z,65.52
2023-03-30T02:25:44.726Z,65.11
2023-03-30T02:26:44.810Z,64.83
2023-03-30T02:27:44.889Z,64.63
2023-03-30T02:28:44.927Z,64.93
2023-03-30T02:29:44.995Z,64.69
2023-03-30T02:30:45.067Z,64.08
2023-03-30T02:31:45.161Z,63.86
2023-03-30T02:32:45.253Z,63.98
2023-03-30T02:33:45.281Z,63.77
2023-03-30T02:34:45.295Z,63.73
2023-03-30T02:35:45.319Z,63.16
2023-03-30T02:36:45.354Z,63.76
2023-03-30T02:37:45.425Z,64.07
2023-03-30T02:38:45.472Z,64.11
2023-03-30T02:39:45.471Z,64.76
2023-03-30T02:40:45.430Z,64.17
2023-03-30T02:41:45.501Z,64.45
2023-03-30T02:42:45.503Z,64.27
2023-03-30T02:43:45.459Z,64.30
2023-03-30T02:44:45.511Z,64.41
2023-03-30T02:45:45.565Z,64.89
2023-03-30T02:46:45.529Z,64.25
2023-03-30T02:47:45.566Z,64.05
2023-03-30T02:48:45.624Z,64.13
2023-03-30T02:49:45.656Z,63.87
2023-03-30T02:50:45.652Z,63.87
2023-03-30T02:51:45.705Z,63.86
2023-03-30T02:52:45.770Z,64.37
2023-03-30T02:53:45.837Z,64.37
2023-03-30T02:54:45.938Z,64.68
2023-03-30T02:55:45.948Z,64.32
2023-03-30T02:56:46.014Z,64.58
2023-03-30T02:57:45.991Z,64.51
2023-03-30T02:58:45.978Z,64.45
2023-03-30T02:59:46.036Z,64.71
2023-03-30T03:00:46.018Z,65.12
2023-03-30T03:01:46.182Z,64.97
2023-03-30T03:02:46.127Z,64.78
2023-03-30T03:03:46.041Z,64.46
2023-03-30T03:04:46.064Z,64.10
2023-03-30T03:05:46.068Z,63.91
2023-03-30T03:06:46.125Z,63.41
2023-03-30T03:07:46.161Z,63.85
2023-03-30T03:08:46.237Z,63.71
2023-03-30T03:09:46.315Z,63.29
2023-03-30T03:10:46.361Z,63.44
2023-03-30T03:11:46.400Z,63.43
2023-03-30T03:12:46.432Z,63.25
2023-03-30T03:13:46.468Z,63.33
2023-03-30T03:14:46.545Z,63.40
2023-03-30T03:15:46.580Z,63.12
2023-03-30T03:16:46.609Z,62.91
2023-03-30T03:17:46.653Z,62.70
2023-03-30T03:18:46.560Z,62.50
2023-03-30T03:19:46.566Z,62.14
2023-03-30T03:20:46.591Z,61.93
2023-03-30T03:21:46.627Z,61.65
2023-03-30T03:22:46.651Z,61.51
2023-03-30T03:23:46.768Z,63.09
2023-03-30T03:24:46.833Z,62.92
2023-03-30T03:25:46.877Z,62.95
2023-03-30T03:26:46.923Z,63.20
2023-03-30T03:27:46.967Z,63.62
2023-03-30T03:28:47.034Z,63.19
2023-03-30T03:29:47.121Z,62.96
2023-03-30T03:30:47.142Z,62.62
2023-03-30T03:31:47.130Z,62.33
2023-03-30T03:32:47.164Z,61.86
2023-03-30T03:33:47.122Z,61.60
2023-03-30T03:34:47.131Z,61.08
2023-03-30T03:35:47.151Z,61.22
2023-03-30T03:36:47.087Z,61.38
2023-03-30T03:37:47.146Z,61.40
2023-03-30T03:38:47.126Z,61.92
2023-03-30T03:39:47.121Z,62.26
2023-03-30T03:40:47.128Z,62.18
2023-03-30T03:41:47.157Z,62.18
2023-03-30T03:42:47.148Z,61.96
2023-03-30T03:43:47.169Z,61.88
2023-03-30T03:44:47.188Z,61.69
2023-03-30T03:45:47.143Z,61.64
2023-03-30T03:46:47.234Z,61.28
2023-03-30T03:47:47.222Z,62.55
2023-03-30T03:48:47.234Z,63.21
2023-03-30T03:49:47.308Z,63.81
2023-03-30T03:50:47.293Z,63.26
2023-03-30T03:51:47.329Z,63.04
2023-03-30T03:52:47.389Z,63.59
2023-03-30T03:53:47.410Z,63.32
2023-03-30T03:54:47.424Z,63.16
2023-03-30T03:55:47.494Z,62.86
2023-03-30T03:56:47.528Z,62.54
2023-03-30T03:57:47.498Z,61.96
2023-03-30T03:58:47.508Z,61.77
2023-03-30T03:59:47.575Z,62.33
2023-03-30T04:00:47.544Z,62.19
2023-03-30T04:01:47.572Z,62.42
2023-03-30T04:02:47.673Z,62.21
2023-03-30T04:03:47.657Z,62.87
2023-03-30T04:04:47.724Z,62.36
2023-03-30T04:05:47.708Z,62.09
2023-03-30T04:06:47.762Z,61.80
2023-03-30T04:07:47.827Z,62.28
2023-03-30T04:08:47.714Z,62.12
2023-03-30T04:09:47.787Z,61.82
2023-03-30T04:10:47.732Z,62.44
2023-03-30T04:11:47.752Z,62.81
2023-03-30T04:12:47.822Z,63.26
2023-03-30T04:13:47.822Z,64.81
2023-03-30T04:14:47.830Z,64.59
2023-03-30T04:15:47.836Z,64.61
2023-03-30T04:16:47.869Z,64.20
2023-03-30T04:17:47.849Z,64.63
2023-03-30T04:18:47.843Z,64.04
2023-03-30T04:19:47.885Z,64.33
2023-03-30T04:20:47.864Z,64.52
2023-03-30T04:21:47.804Z,63.90
2023-03-30T04:22:47.810Z,64.11
2023-03-30T04:23:47.827Z,64.15
2023-03-30T04:24:47.842Z,64.48
2023-03-30T04:25:47.906Z,64.02
2023-03-30T04:26:47.909Z,63.78
2023-03-30T04:27:47.914Z,63.94
2023-03-30T04:28:47.959Z,63.62
2023-03-30T04:29:48.037Z,64.09
2023-03-30T04:30:48.036Z,63.85
2023-03-30T04:31:48.123Z,64.05
2023-03-30T04:32:48.144Z,63.96
2023-03-30T04:33:49.562Z,64.12
2023-03-30T04:34:48.131Z,65.28
2023-03-30T04:35:48.123Z,65.49
2023-03-30T04:36:48.110Z,66.55
2023-03-30T04:37:48.117Z,67.52
2023-03-30T04:38:48.091Z,68.26
2023-03-30T04:39:48.100Z,68.36
2023-03-30T04:40:48.103Z,68.78
2023-03-30T04:41:48.073Z,68.96
2023-03-30T04:42:48.069Z,69.50
2023-03-30T04:43:48.033Z,69.70
2023-03-30T04:44:49.253Z,68.80
2023-03-30T04:45:48.040Z,68.56
2023-03-30T04:46:48.073Z,68.69
2023-03-30T04:47:48.043Z,69.38
2023-03-30T04:48:48.049Z,69.41
2023-03-30T04:49:48.066Z,69.11
2023-03-30T04:50:48.031Z,68.74
2023-03-30T04:51:48.004Z,68.66
2023-03-30T04:52:48.015Z,69.52
2023-03-30T04:53:47.984Z,69.26
2023-03-30T04:54:48.013Z,69.06
2023-03-30T04:55:47.977Z,69.10
2023-03-30T04:56:47.987Z,69.97
2023-03-30T04:57:47.989Z,70.34
2023-03-30T04:58:47.979Z,70.48
2023-03-30T04:59:47.987Z,70.55
2023-03-30T05:02:15.626Z,71.19
2023-03-30T05:03:08.071Z,70.21
2023-03-30T05:04:07.984Z,69.73
2023-03-30T05:05:07.971Z,69.79
2023-03-30T05:06:07.924Z,70.17
2023-03-30T05:07:08.041Z,70.05
2023-03-30T05:08:07.930Z,69.88
2023-03-30T05:09:09.068Z,69.45
2023-03-30T05:10:07.953Z,69.19
2023-03-30T05:11:07.906Z,68.63
2023-03-30T05:12:07.927Z,68.08
2023-03-30T05:13:07.921Z,67.59
2023-03-30T05:14:07.895Z,67.49
2023-03-30T05:15:07.887Z,66.94
2023-03-30T05:16:07.877Z,66.65
2023-03-30T05:17:07.920Z,66.57
2023-03-30T05:18:07.961Z,66.13
2023-03-30T05:19:07.912Z,66.87
2023-03-30T05:20:08.007Z,66.71
2023-03-30T05:21:08.114Z,66.54
2023-03-30T05:22:08.119Z,66.93
2023-03-30T05:23:08.147Z,66.63
2023-03-30T05:24:08.231Z,66.44
2023-03-30T05:25:08.263Z,67.53
2023-03-30T05:26:08.264Z,67.15
2023-03-30T05:27:08.261Z,67.36
2023-03-30T05:28:08.272Z,67.68
2023-03-30T05:29:08.407Z,67.71
2023-03-30T05:30:08.392Z,67.69
2023-03-30T05:31:08.515Z,68.24
2023-03-30T05:32:08.473Z,69.08
2023-03-30T05:33:08.627Z,69.17
2023-03-30T05:34:09.229Z,69.48
2023-03-30T05:35:08.837Z,69.91
2023-03-30T05:36:08.632Z,69.29
2023-03-30T05:37:08.625Z,69.37
2023-03-30T05:38:08.646Z,69.53
2023-03-30T05:39:08.751Z,70.19
2023-03-30T05:40:08.781Z,70.17
2023-03-30T05:41:09.195Z,69.67
2023-03-30T05:42:08.775Z,69.89
2023-03-30T05:43:09.384Z,70.34
2023-03-30T05:44:08.911Z,69.25
2023-03-30T05:45:09.227Z,68.62
2023-03-30T05:47:29.565Z,68.50
2023-03-30T05:48:28.858Z,67.54
2023-03-30T05:49:28.912Z,67.01
2023-03-30T05:50:28.920Z,67.10
2023-03-30T05:51:28.849Z,66.84
2023-03-30T05:52:29.250Z,66.51
2023-03-30T05:53:28.718Z,66.07
2023-03-30T05:54:28.731Z,65.95
2023-03-30T05:55:28.922Z,66.55
2023-03-30T05:56:28.768Z,66.48
2023-03-30T05:57:28.755Z,66.88
2023-03-30T05:58:28.788Z,66.93
2023-03-30T05:59:29.115Z,66.47
2023-03-30T06:00:29.337Z,66.33
2023-03-30T06:01:28.809Z,66.80
2023-03-30T06:02:28.915Z,67.29
2023-03-30T06:03:29.015Z,68.03
2023-03-30T06:04:29.240Z,68.43
2023-03-30T06:05:28.861Z,67.50
2023-03-30T06:06:28.968Z,66.96
2023-03-30T06:07:29.015Z,66.16
2023-03-30T06:08:28.954Z,65.77
2023-03-30T06:09:28.954Z,65.24
2023-03-30T06:10:28.926Z,64.84
2023-03-30T06:11:29.310Z,64.50
2023-03-30T06:12:28.890Z,64.23
2023-03-30T06:13:28.993Z,64.01
2023-03-30T06:14:28.970Z,63.53
2023-03-30T06:15:28.897Z,63.35
2023-03-30T06:16:29.014Z,62.99
2023-03-30T06:17:28.961Z,62.69
2023-03-30T06:18:28.926Z,62.45
2023-03-30T06:19:28.956Z,61.96
2023-03-30T06:20:29.011Z,61.79
2023-03-30T06:21:29.362Z,61.57
2023-03-30T06:22:31.288Z,60.97
2023-03-30T06:23:28.914Z,60.83
2023-03-30T06:24:28.904Z,60.53
2023-03-30T06:25:28.977Z,60.52
2023-03-30T06:26:28.888Z,60.48
2023-03-30T06:27:28.840Z,60.44
2023-03-30T06:28:28.988Z,60.29
2023-03-30T06:29:28.895Z,60.42
2023-03-30T06:30:28.996Z,60.48
2023-03-30T06:31:29.279Z,60.37
2023-03-30T06:32:28.953Z,60.37
2023-03-30T06:33:28.982Z,60.53
2023-03-30T06:34:28.994Z,60.53
2023-03-30T06:35:28.973Z,60.49
2023-03-30T06:36:45.266Z,60.23
2023-03-30T06:37:28.979Z,60.14
2023-03-30T06:38:30.185Z,60.08
2023-03-30T06:39:28.955Z,60.19
2023-03-30T06:40:29.079Z,60.10
2023-03-30T06:41:29.068Z,59.97
2023-03-30T06:42:29.087Z,59.77
2023-03-30T06:43:29.012Z,59.74
2023-03-30T06:44:28.963Z,59.51
2023-03-30T06:45:29.251Z,59.28
2023-03-30T06:46:29.384Z,59.57
2023-03-30T06:47:29.180Z,59.32
2023-03-30T06:48:29.666Z,59.31
2023-03-30T06:49:29.003Z,59.28
2023-03-30T06:50:29.093Z,58.80
2023-03-30T06:51:29.666Z,58.78
2023-03-30T06:52:29.180Z,58.82
2023-03-30T06:53:29.258Z,58.54
2023-03-30T06:54:29.631Z,58.70
2023-03-30T06:55:29.281Z,58.95
2023-03-30T06:56:29.774Z,59.03
2023-03-30T06:57:29.458Z,59.16
2023-03-30T06:58:29.508Z,59.02
2023-03-30T06:59:29.336Z,58.74
2023-03-30T07:00:29.523Z,58.40
2023-03-30T07:01:29.613Z,58.03
2023-03-30T07:02:29.417Z,57.90
2023-03-30T07:03:29.416Z,58.00
2023-03-30T07:04:29.516Z,58.01
2023-03-30T07:05:29.442Z,57.62
2023-03-30T07:06:29.482Z,57.61
2023-03-30T07:07:29.563Z,57.57
2023-03-30T07:08:29.407Z,57.66
2023-03-30T07:09:29.464Z,57.94
2023-03-30T07:10:29.308Z,57.91
2023-03-30T07:11:29.819Z,57.79
2023-03-30T07:12:29.497Z,58.07
2023-03-30T07:13:29.534Z,58.49
2023-03-30T07:14:29.519Z,58.27
2023-03-30T07:15:29.471Z,58.44
2023-03-30T07:16:29.862Z,58.37
2023-03-30T07:17:29.574Z,58.33
2023-03-30T07:18:30.107Z,57.89
2023-03-30T07:19:29.537Z,58.00
2023-03-30T07:20:29.709Z,58.16
2023-03-30T07:21:29.641Z,58.33
2023-03-30T07:22:30.561Z,58.53
2023-03-30T07:23:29.515Z,58.26
2023-03-30T07:24:29.515Z,58.01
2023-03-30T07:25:29.572Z,57.94
2023-03-30T07:26:29.834Z,57.83
2023-03-30T07:27:29.571Z,58.00
2023-03-30T07:28:29.575Z,57.95
2023-03-30T07:29:29.588Z,57.71
2023-03-30T07:30:30.163Z,57.97
2023-03-30T07:31:29.763Z,58.84
2023-03-30T07:32:29.554Z,60.22
2023-03-30T07:33:29.504Z,61.06
2023-03-30T07:34:29.554Z,61.79
2023-03-30T07:35:29.419Z,61.47
2023-03-30T07:36:29.864Z,62.31
2023-03-30T07:37:29.570Z,62.32
2023-03-30T07:38:29.872Z,62.41
2023-03-30T07:39:30.565Z,62.38
2023-03-30T07:40:29.834Z,62.28
2023-03-30T07:41:29.614Z,63.27
2023-03-30T07:42:29.543Z,63.25
2023-03-30T07:43:32.060Z,62.78
2023-03-30T07:44:29.514Z,62.64
2023-03-30T07:45:29.516Z,62.07
2023-03-30T07:46:29.576Z,62.01
2023-03-30T07:47:29.591Z,62.48
2023-03-30T07:48:30.257Z,63.10
2023-03-30T07:49:30.188Z,62.95
2023-03-30T07:50:29.672Z,62.86
2023-03-30T07:51:29.499Z,63.38
2023-03-30T07:52:29.572Z,62.75
2023-03-30T07:53:29.484Z,62.70
2023-03-30T07:54:30.198Z,61.91
2023-03-30T07:55:29.482Z,62.36
2023-03-30T07:56:29.549Z,62.53
2023-03-30T07:57:29.674Z,61.92
2023-03-30T07:58:29.399Z,61.43
2023-03-30T07:59:29.444Z,61.40
2023-03-30T08:00:29.491Z,61.55
2023-03-30T08:01:30.044Z,61.15
2023-03-30T08:02:29.571Z,61.05
2023-03-30T08:03:29.599Z,60.59
2023-03-30T08:04:29.669Z,60.90
2023-03-30T08:05:29.433Z,60.25
2023-03-30T08:06:29.391Z,60.40
2023-03-30T08:07:29.323Z,60.94
2023-03-30T08:08:29.379Z,59.79
2023-03-30T08:09:29.348Z,60.01
2023-03-30T08:10:29.414Z,59.58
2023-03-30T08:11:29.508Z,58.84
2023-03-30T08:12:29.295Z,57.71
2023-03-30T08:13:29.322Z,57.37
2023-03-30T08:14:29.387Z,58.12
2023-03-30T08:15:29.339Z,57.52
2023-03-30T08:16:29.458Z,57.59
2023-03-30T08:17:29.370Z,57.25
2023-03-30T08:18:29.363Z,56.93
2023-03-30T08:19:29.343Z,56.80
2023-03-30T08:20:30.360Z,56.88
2023-03-30T08:21:29.338Z,56.99
2023-03-30T08:22:29.285Z,56.72
2023-03-30T08:23:29.299Z,56.23
2023-03-30T08:24:29.268Z,56.51
2023-03-30T08:25:29.203Z,56.70
2023-03-30T08:26:29.284Z,56.73
2023-03-30T08:27:29.432Z,56.71
2023-03-30T08:28:29.419Z,57.91
2023-03-30T08:29:29.317Z,58.40
2023-03-30T08:30:29.349Z,58.19
2023-03-30T08:31:29.344Z,57.72
2023-03-30T08:32:29.261Z,57.28
2023-03-30T08:33:29.259Z,58.20
2023-03-30T08:34:30.206Z,59.06
2023-03-30T08:35:29.384Z,60.17
2023-03-30T08:36:29.857Z,60.63
2023-03-30T08:37:29.278Z,60.89
2023-03-30T08:38:29.357Z,61.07
2023-03-30T08:39:29.196Z,60.31
2023-03-30T08:40:29.275Z,59.46
2023-03-30T08:41:29.250Z,60.59
2023-03-30T08:42:29.268Z,59.72
2023-03-30T08:43:29.407Z,59.24
2023-03-30T08:44:29.635Z,59.67
2023-03-30T08:45:29.241Z,58.54
2023-03-30T08:46:29.234Z,57.86
2023-03-30T08:47:29.262Z,57.85
2023-03-30T08:48:29.144Z,56.72
2023-03-30T08:49:29.236Z,56.91
2023-03-30T08:50:29.098Z,56.65
2023-03-30T08:51:29.194Z,57.19
2023-03-30T08:52:29.138Z,57.81
2023-03-30T08:53:29.131Z,56.65
2023-03-30T08:54:29.058Z,56.55
2023-03-30T08:55:29.149Z,56.38
2023-03-30T08:56:29.591Z,56.23
2023-03-30T08:57:29.066Z,55.91
2023-03-30T08:58:29.254Z,56.13
2023-03-30T08:59:29.811Z,56.53
2023-03-30T09:00:29.121Z,56.54
2023-03-30T09:01:29.189Z,56.77
2023-03-30T09:02:29.067Z,57.64
2023-03-30T09:03:29.100Z,58.40
2023-03-30T09:04:29.059Z,58.97
2023-03-30T09:05:29.158Z,59.17
2023-03-30T09:06:29.016Z,59.12
2023-03-30T09:07:28.959Z,59.21
2023-03-30T09:08:29.739Z,59.15
2023-03-30T09:09:29.091Z,59.78
2023-03-30T09:10:29.789Z,59.93
2023-03-30T09:11:29.164Z,59.46
2023-03-30T09:12:30.038Z,60.07
2023-03-30T09:13:29.730Z,59.98
2023-03-30T09:14:31.907Z,59.30
2023-03-30T09:15:31.254Z,58.56
2023-03-30T09:16:29.333Z,58.31
2023-03-30T09:17:29.126Z,58.72
2023-03-30T09:18:29.089Z,57.70
2023-03-30T09:19:29.050Z,58.86
2023-03-30T09:20:29.123Z,59.72
2023-03-30T09:21:29.187Z,59.79
2023-03-30T09:22:29.735Z,59.37
2023-03-30T09:23:29.294Z,58.87
2023-03-30T09:24:29.299Z,59.01
2023-03-30T09:25:29.340Z,59.04
2023-03-30T09:26:29.290Z,59.26
2023-03-30T09:27:29.812Z,59.53
2023-03-30T09:28:29.220Z,59.03
2023-03-30T09:29:29.239Z,59.88
2023-03-30T09:30:31.177Z,59.11
2023-03-30T09:31:30.176Z,58.93
2023-03-30T09:32:29.194Z,58.92
2023-03-30T09:33:29.224Z,59.11
2023-03-30T09:34:29.213Z,59.25
2023-03-30T09:35:29.254Z,58.86
2023-03-30T09:36:29.460Z,59.21
2023-03-30T09:37:29.187Z,59.49
2023-03-30T09:38:29.697Z,59.78
2023-03-30T09:39:30.453Z,59.66
2023-03-30T09:40:29.248Z,59.41
2023-03-30T09:41:29.296Z,59.73
2023-03-30T09:42:29.115Z,59.79
2023-03-30T09:43:29.126Z,59.15
2023-03-30T09:44:29.115Z,58.60
2023-03-30T09:45:30.698Z,58.52
2023-03-30T09:46:29.307Z,58.48
2023-03-30T09:47:29.221Z,57.67
2023-03-30T09:48:29.046Z,58.57
2023-03-30T09:49:29.144Z,58.66
2023-03-30T09:50:29.154Z,57.56
2023-03-30T09:51:31.264Z,57.39
2023-03-30T09:52:29.264Z,57.55
2023-03-30T09:53:29.148Z,57.35
2023-03-30T09:54:29.130Z,57.42
2023-03-30T09:55:29.305Z,57.04
2023-03-30T09:56:29.202Z,57.17
2023-03-30T09:57:29.169Z,56.70
2023-03-30T09:58:29.161Z,56.92
2023-03-30T09:59:29.036Z,56.48
2023-03-30T10:00:29.041Z,56.73
2023-03-30T10:01:29.099Z,57.04
2023-03-30T10:02:29.741Z,57.60
2023-03-30T10:03:29.436Z,56.95
2023-03-30T10:04:29.327Z,56.81
2023-03-30T10:05:29.282Z,56.72
2023-03-30T10:06:29.262Z,56.99
2023-03-30T10:07:29.265Z,56.83
2023-03-30T10:08:30.266Z,56.61
2023-03-30T10:09:29.238Z,57.05
2023-03-30T10:10:30.233Z,56.45
2023-03-30T10:11:29.267Z,55.91
2023-03-30T10:12:29.212Z,55.56
2023-03-30T10:13:29.333Z,55.26
2023-03-30T10:14:29.249Z,54.72
2023-03-30T10:15:29.322Z,55.08
2023-03-30T10:16:29.386Z,54.72
2023-03-30T10:17:29.769Z,54.76
2023-03-30T10:18:29.237Z,54.23
2023-03-30T10:19:29.175Z,53.65
2023-03-30T10:20:30.120Z,53.79
2023-03-30T10:21:29.277Z,53.51
2023-03-30T10:22:29.261Z,53.42
2023-03-30T10:23:29.175Z,53.17
2023-03-30T10:24:29.251Z,53.54
2023-03-30T10:25:29.832Z,53.12
2023-03-30T10:26:29.614Z,53.51
2023-03-30T10:27:29.167Z,52.74
2023-03-30T10:28:29.088Z,52.19
2023-03-30T10:29:29.017Z,51.74
2023-03-30T10:30:29.115Z,51.91
2023-03-30T10:31:29.171Z,51.95
2023-03-30T10:32:29.318Z,51.54
2023-03-30T10:33:29.167Z,51.86
2023-03-30T10:34:29.250Z,51.51
2023-03-30T10:35:29.259Z,51.52
2023-03-30T10:36:29.066Z,51.86
2023-03-30T10:37:29.359Z,52.16
2023-03-30T10:38:29.148Z,51.60
2023-03-30T10:39:29.204Z,51.15
2023-03-30T10:40:29.064Z,50.54
2023-03-30T10:41:29.242Z,49.89
2023-03-30T10:42:29.319Z,49.93
2023-03-30T10:43:29.571Z,50.75
2023-03-30T10:44:29.136Z,50.50
2023-03-30T10:45:29.882Z,50.97
2023-03-30T10:46:29.159Z,51.44
2023-03-30T10:47:29.829Z,51.28
2023-03-30T10:48:28.991Z,51.83
2023-03-30T10:49:28.998Z,51.49
2023-03-30T10:50:29.224Z,50.80
2023-03-30T10:51:29.686Z,49.53
2023-03-30T10:52:29.905Z,49.30
2023-03-30T10:53:28.974Z,50.48
2023-03-30T10:54:29.562Z,51.00
2023-03-30T10:55:29.783Z,50.87
2023-03-30T10:56:29.040Z,51.63
2023-03-30T10:57:29.072Z,51.49
2023-03-30T10:58:28.973Z,51.27
2023-03-30T10:59:28.974Z,51.66
2023-03-30T11:00:28.935Z,51.63
2023-03-30T11:01:28.947Z,52.05
2023-03-30T11:02:30.572Z,52.42
2023-03-30T11:03:28.981Z,52.27
2023-03-30T11:04:28.919Z,51.36
2023-03-30T11:05:31.230Z,50.20
2023-03-30T11:06:28.865Z,49.49
2023-03-30T11:07:28.877Z,50.21
2023-03-30T11:08:28.829Z,49.78
2023-03-30T11:09:28.958Z,49.44
2023-03-30T11:10:28.930Z,49.77
2023-03-30T11:11:28.809Z,49.76
2023-03-30T11:12:29.305Z,49.65
2023-03-30T11:13:28.996Z,50.48
2023-03-30T11:14:28.800Z,50.58
2023-03-30T11:15:28.805Z,50.86
2023-03-30T11:16:28.823Z,50.33
2023-03-30T11:17:29.270Z,49.38
2023-03-30T11:18:28.751Z,49.63
2023-03-30T11:19:28.744Z,48.98
2023-03-30T11:20:28.846Z,49.30
2023-03-30T11:21:28.782Z,48.90
2023-03-30T11:22:30.168Z,47.13
2023-03-30T11:23:28.916Z,47.08
2023-03-30T11:24:28.863Z,47.23
2023-03-30T11:25:28.884Z,46.66
2023-03-30T11:26:29.587Z,47.68
2023-03-30T11:27:28.895Z,47.78
2023-03-30T11:28:29.254Z,47.76
2023-03-30T11:29:28.941Z,47.59
2023-03-30T11:30:28.827Z,47.93
2023-03-30T11:31:29.900Z,48.72
2023-03-30T11:32:28.936Z,48.05
2023-03-30T11:33:29.254Z,48.41
2023-03-30T11:34:28.942Z,48.23
2023-03-30T11:35:28.928Z,47.33
2023-03-30T11:36:29.016Z,47.13
2023-03-30T11:37:28.876Z,47.30
2023-03-30T11:38:29.529Z,47.37
2023-03-30T11:39:32.105Z,47.15
2023-03-30T11:40:29.872Z,47.35
2023-03-30T11:41:29.511Z,47.92
2023-03-30T11:42:29.096Z,47.95
2023-03-30T11:43:30.183Z,48.61
2023-03-30T11:44:29.201Z,48.38
2023-03-30T11:45:29.202Z,48.47
2023-03-30T11:46:29.243Z,48.15
2023-03-30T11:47:29.193Z,47.06
2023-03-30T11:48:29.294Z,45.91
2023-03-30T11:49:29.278Z,45.62
2023-03-30T11:50:29.312Z,44.88
2023-03-30T11:51:29.356Z,45.72
2023-03-30T11:52:29.438Z,45.61
2023-03-30T11:53:29.454Z,45.80
2023-03-30T11:54:29.561Z,45.85
2023-03-30T11:55:29.552Z,45.31
2023-03-30T11:56:29.564Z,45.15
2023-03-30T11:57:29.690Z,45.96
2023-03-30T11:58:29.813Z,45.97
2023-03-30T11:59:29.649Z,46.26
2023-03-30T12:00:29.745Z,46.37
2023-03-30T12:01:29.771Z,47.22
2023-03-30T12:02:29.894Z,47.13
2023-03-30T12:03:30.506Z,47.78
2023-03-30T12:04:30.066Z,47.81
2023-03-30T12:05:30.140Z,47.73
2023-03-30T12:06:30.133Z,47.55
2023-03-30T12:07:30.203Z,46.46
2023-03-30T12:08:30.196Z,46.93
2023-03-30T12:09:30.219Z,46.34
2023-03-30T12:10:30.336Z,45.99
2023-03-30T12:11:30.325Z,45.64
2023-03-30T12:12:30.337Z,45.70
2023-03-30T12:13:41.082Z,45.57
2023-03-30T12:14:31.470Z,45.66
2023-03-30T12:15:30.397Z,45.50
2023-03-30T12:16:30.426Z,45.00
2023-03-30T12:17:30.443Z,44.30
2023-03-30T12:18:30.340Z,44.81
2023-03-30T12:19:30.321Z,45.20
2023-03-30T12:20:30.355Z,44.66
2023-03-30T12:21:30.376Z,44.50
2023-03-30T12:22:30.428Z,44.14
2023-03-30T12:23:30.347Z,44.49
2023-03-30T12:24:30.383Z,43.97
2023-03-30T12:25:30.542Z,42.79
2023-03-30T12:26:30.539Z,42.07
2023-03-30T12:27:30.540Z,41.85
2023-03-30T12:28:44.264Z,41.89
2023-03-30T12:29:56.356Z,42.63
2023-03-30T12:30:31.526Z,42.75
2023-03-30T12:31:30.533Z,43.46
2023-03-30T12:32:30.562Z,42.68
2023-03-30T12:33:30.516Z,42.26
2023-03-30T12:34:30.491Z,42.20
2023-03-30T12:35:30.572Z,42.13
2023-03-30T12:36:31.519Z,41.65
2023-03-30T12:37:30.572Z,41.18
2023-03-30T12:38:30.517Z,41.26
2023-03-30T12:39:30.512Z,41.04
2023-03-30T12:40:30.473Z,41.26
2023-03-30T12:41:30.385Z,40.75
2023-03-30T12:42:30.397Z,40.90
2023-03-30T12:43:30.749Z,41.34
2023-03-30T12:44:30.455Z,41.65
2023-03-30T12:45:30.493Z,42.02
2023-03-30T12:46:30.512Z,42.19
2023-03-30T12:47:30.519Z,42.77
2023-03-30T12:48:30.907Z,42.92
2023-03-30T12:49:30.528Z,43.59
2023-03-30T12:50:30.530Z,44.31
2023-03-30T12:51:30.404Z,44.56
2023-03-30T12:52:31.374Z,44.92
2023-03-30T12:53:30.470Z,45.22
2023-03-30T12:54:31.416Z,45.76
2023-03-30T12:55:31.200Z,45.54